Browns Crossroads, Kentucky
Current Conditions -  °F | °C
As of 8:08 AM on Tuesday 21 Oct 2014 (Local Time) from KEKQ Reporting Station
Haze Haze  
Wind Chill: 46°   Ceiling: Unl
Heat Index: 46°   Visibility: 3mi
Dew Point: 46°   Wind: 0mph
Humidity: 100%   Direction: NA
Pressure: 30.05"   Gusts: NA
Location:  36.6815°N, 85.1287°W
Report Text: KEKQ 211308Z AUTO 00000KT 3SM BR CLR 08/08 A3005 RMK AO2
Loading
Personal Weather Stations






























Interactive Weather Map
Tropical Storm Tracking
New forecast layout! Learn more

10-Day Weather Forecast

Advertisements
Track Severe Weather on mobile